Time;durP1;ratioP1;P1;durP2;ratioP2;P2;SDS_P1;SDS_P2;PMS_P1;PMS_P2;Temp;Humidity;BMP_temperature;BMP_pressure;BME280_temperature;BME280_humidity;BME280_pressure;Samples;Min_cycle;Max_cycle;Signal;HPM_P1;HPM_P2
2022/03/25 00:00:48;;;;;;;47.28;26.70;;;;;;;;;;5042461;28;20317;-57
2022/03/25 00:03:13;;;;;;;44.05;27.00;;;;;;;;;;5041635;28;20219;-57
2022/03/25 00:05:38;;;;;;;43.47;26.73;;;;;;;;;;5041254;28;20507;-57
2022/03/25 00:08:04;;;;;;;46.28;26.48;;;;;;;;;;5041348;28;20635;-57
2022/03/25 00:10:29;;;;;;;45.92;26.77;;;;;;;;;;5035808;28;20226;-57
2022/03/25 00:12:54;;;;;;;43.63;27.70;;;;;;;;;;5034159;28;20247;-57
2022/03/25 00:15:20;;;;;;;41.63;26.42;;;;;;;;;;5033472;28;20215;-57
2022/03/25 00:17:45;;;;;;;48.83;28.80;;;;;;;;;;5038103;28;20234;-57
2022/03/25 00:20:10;;;;;;;46.85;27.67;;;;;;;;;;5041525;28;20261;-57
2022/03/25 00:22:36;;;;;;;44.25;28.20;;;;;;;;;;5041887;28;20207;-57
2022/03/25 00:25:03;;;;;;;47.85;29.20;;;;;;;;;;5040466;28;20219;-58
2022/03/25 00:27:28;;;;;;;45.22;27.50;;;;;;;;;;5041712;28;20212;-57
2022/03/25 00:29:53;;;;;;;49.90;29.10;;;;;;;;;;5041475;28;20238;-57
2022/03/25 00:32:21;;;;;;;48.95;30.35;;;;;;;;;;5038094;28;20219;-57
2022/03/25 00:34:46;;;;;;;49.72;30.30;;;;;;;;;;5053823;28;20203;-57
2022/03/25 00:37:12;;;;;;;50.55;29.35;;;;;;;;;;5052698;28;20315;-57
2022/03/25 00:39:37;;;;;;;50.35;31.38;;;;;;;;;;5037259;28;20218;-57
2022/03/25 00:42:03;;;;;;;49.17;30.70;;;;;;;;;;5040966;28;20214;-57
2022/03/25 00:44:29;;;;;;;46.80;30.33;;;;;;;;;;5041903;28;20921;-57
2022/03/25 00:46:54;;;;;;;49.50;31.38;;;;;;;;;;5041026;28;20249;-57
2022/03/25 00:49:19;;;;;;;50.08;31.67;;;;;;;;;;5042203;28;20234;-57
2022/03/25 00:51:46;;;;;;;49.92;30.75;;;;;;;;;;5064595;28;20217;-57
2022/03/25 00:54:12;;;;;;;54.45;32.45;;;;;;;;;;5063210;28;20217;-57
2022/03/25 00:56:37;;;;;;;56.05;33.60;;;;;;;;;;5056854;28;20250;-57
2022/03/25 00:59:02;;;;;;;51.10;32.70;;;;;;;;;;5050346;28;20783;-57
2022/03/25 01:01:28;;;;;;;52.85;32.88;;;;;;;;;;5037402;28;20219;-57
2022/03/25 01:03:53;;;;;;;53.95;34.35;;;;;;;;;;5043994;28;20211;-57
2022/03/25 01:06:18;;;;;;;53.97;35.03;;;;;;;;;;5044769;28;21027;-57
2022/03/25 01:08:44;;;;;;;57.00;35.13;;;;;;;;;;5043823;28;20847;-57
2022/03/25 01:11:09;;;;;;;57.55;35.83;;;;;;;;;;5044185;28;20242;-57
2022/03/25 01:13:34;;;;;;;51.40;33.92;;;;;;;;;;5044959;28;20218;-57
2022/03/25 01:16:01;;;;;;;59.92;34.95;;;;;;;;;;5043913;28;20667;-57
2022/03/25 01:18:26;;;;;;;58.67;35.38;;;;;;;;;;5039766;28;20207;-57
2022/03/25 01:20:51;;;;;;;57.38;36.17;;;;;;;;;;5036045;28;20222;-57
2022/03/25 01:23:17;;;;;;;57.80;37.42;;;;;;;;;;5036531;28;20211;-57
2022/03/25 01:25:42;;;;;;;58.13;36.85;;;;;;;;;;5041005;28;20229;-57
2022/03/25 01:28:07;;;;;;;62.35;36.75;;;;;;;;;;5043298;28;20219;-57
2022/03/25 01:30:32;;;;;;;59.28;37.58;;;;;;;;;;5044323;28;20211;-57
2022/03/25 01:32:58;;;;;;;59.65;37.85;;;;;;;;;;5044492;28;20294;-57
2022/03/25 01:35:24;;;;;;;60.60;37.05;;;;;;;;;;5043149;28;20218;-57
2022/03/25 01:37:49;;;;;;;58.72;37.60;;;;;;;;;;5044309;28;20207;-57
2022/03/25 01:40:15;;;;;;;61.88;38.22;;;;;;;;;;5041753;28;20226;-57
2022/03/25 01:42:41;;;;;;;60.50;37.38;;;;;;;;;;5035456;28;20862;-57
2022/03/25 01:45:09;;;;;;;60.92;36.67;;;;;;;;;;5035880;28;20890;-58
2022/03/25 01:47:34;;;;;;;56.83;35.88;;;;;;;;;;5037650;28;20767;-57
2022/03/25 01:50:00;;;;;;;60.83;38.35;;;;;;;;;;5043222;28;20226;-57
2022/03/25 01:52:26;;;;;;;60.60;39.22;;;;;;;;;;5043773;28;20207;-57
2022/03/25 01:54:51;;;;;;;60.55;38.03;;;;;;;;;;5043601;28;20330;-57
2022/03/25 01:57:16;;;;;;;60.50;38.58;;;;;;;;;;5042839;28;20226;-57
2022/03/25 01:59:42;;;;;;;62.97;37.60;;;;;;;;;;5033604;28;20302;-57
2022/03/25 02:02:07;;;;;;;64.47;39.13;;;;;;;;;;5042549;28;20300;-57
2022/03/25 02:04:32;;;;;;;58.00;37.50;;;;;;;;;;5055085;28;20325;-57
2022/03/25 02:06:58;;;;;;;65.80;39.45;;;;;;;;;;5055492;28;20348;-57
2022/03/25 02:09:24;;;;;;;59.47;37.58;;;;;;;;;;5055000;28;20301;-57
2022/03/25 02:11:50;;;;;;;59.50;37.60;;;;;;;;;;5043343;28;20252;-57
2022/03/25 02:14:16;;;;;;;63.15;39.55;;;;;;;;;;5043292;28;20218;-57
2022/03/25 02:16:44;;;;;;;61.40;38.92;;;;;;;;;;5043449;28;20221;-57
2022/03/25 02:19:11;;;;;;;65.68;42.00;;;;;;;;;;5061116;28;20704;-57
2022/03/25 02:21:38;;;;;;;65.35;41.42;;;;;;;;;;5063247;28;20662;-57
2022/03/25 02:24:03;;;;;;;60.75;39.20;;;;;;;;;;5062429;28;20210;-57
2022/03/25 02:26:28;;;;;;;67.28;41.95;;;;;;;;;;5057702;28;20224;-57
2022/03/25 02:28:54;;;;;;;63.53;41.70;;;;;;;;;;5054772;28;20589;-57
2022/03/25 02:31:20;;;;;;;69.57;44.40;;;;;;;;;;5053934;28;20264;-57
2022/03/25 02:33:45;;;;;;;67.63;43.53;;;;;;;;;;5059045;28;20289;-57
2022/03/25 02:36:10;;;;;;;69.97;44.35;;;;;;;;;;5062195;28;20222;-57
2022/03/25 02:38:36;;;;;;;70.10;44.35;;;;;;;;;;5052599;28;20206;-57
2022/03/25 02:41:01;;;;;;;65.03;42.97;;;;;;;;;;5042338;28;20281;-57
2022/03/25 02:43:27;;;;;;;74.85;46.80;;;;;;;;;;5043280;28;20211;-57
2022/03/25 02:45:53;;;;;;;75.25;46.45;;;;;;;;;;5042750;28;20732;-57
2022/03/25 02:48:18;;;;;;;70.28;45.10;;;;;;;;;;5040667;28;20208;-57
2022/03/25 02:50:46;;;;;;;70.53;46.85;;;;;;;;;;5053911;28;20223;-56
2022/03/25 02:53:11;;;;;;;75.90;49.40;;;;;;;;;;5053703;28;20221;-57
2022/03/25 02:55:36;;;;;;;76.40;49.03;;;;;;;;;;5055502;28;20234;-57
2022/03/25 02:58:02;;;;;;;78.93;48.60;;;;;;;;;;5061786;28;20210;-57
2022/03/25 03:00:27;;;;;;;78.75;47.15;;;;;;;;;;5044275;28;20690;-57
2022/03/25 03:02:53;;;;;;;75.40;48.30;;;;;;;;;;5042391;28;20623;-57
2022/03/25 03:05:18;;;;;;;78.07;47.85;;;;;;;;;;5042281;28;20223;-57
2022/03/25 03:07:45;;;;;;;79.35;48.75;;;;;;;;;;5041634;28;20203;-57
2022/03/25 03:10:10;;;;;;;78.15;49.55;;;;;;;;;;5041928;28;20593;-57
2022/03/25 03:12:36;;;;;;;78.60;49.42;;;;;;;;;;5035840;28;20218;-57
2022/03/25 03:15:01;;;;;;;77.72;50.15;;;;;;;;;;5033099;28;20890;-57
2022/03/25 03:17:26;;;;;;;83.28;50.67;;;;;;;;;;5035059;28;20210;-57
2022/03/25 03:19:52;;;;;;;77.70;47.47;;;;;;;;;;5040210;28;20215;-57
2022/03/25 03:22:18;;;;;;;79.82;51.22;;;;;;;;;;5041214;28;20286;-57
2022/03/25 03:24:43;;;;;;;80.93;51.97;;;;;;;;;;5042094;28;20264;-57
2022/03/25 03:27:09;;;;;;;78.85;49.47;;;;;;;;;;5041733;28;20310;-57
2022/03/25 03:29:35;;;;;;;88.38;53.90;;;;;;;;;;5041448;28;20231;-57
2022/03/25 03:32:01;;;;;;;84.30;52.92;;;;;;;;;;5041646;28;20214;-59
2022/03/25 03:34:26;;;;;;;81.38;52.05;;;;;;;;;;5037621;28;20622;-57
2022/03/25 03:36:51;;;;;;;78.05;50.30;;;;;;;;;;5033706;28;20218;-57
2022/03/25 03:39:17;;;;;;;87.00;53.38;;;;;;;;;;5033967;28;20207;-57
2022/03/25 03:41:42;;;;;;;84.68;54.38;;;;;;;;;;5056490;28;21156;-57
2022/03/25 03:44:07;;;;;;;90.10;54.60;;;;;;;;;;5061412;28;20289;-57
2022/03/25 03:46:33;;;;;;;86.90;54.08;;;;;;;;;;5042720;28;20215;-57
2022/03/25 03:48:58;;;;;;;89.03;55.08;;;;;;;;;;5041328;28;20733;-57
2022/03/25 03:51:23;;;;;;;92.55;55.63;;;;;;;;;;5041550;28;20207;-57
2022/03/25 03:53:49;;;;;;;94.53;56.92;;;;;;;;;;5042056;28;20309;-57
2022/03/25 03:56:14;;;;;;;92.70;57.17;;;;;;;;;;5039610;28;20238;-57
2022/03/25 03:58:40;;;;;;;90.03;55.85;;;;;;;;;;5050127;28;20207;-57
2022/03/25 04:01:05;;;;;;;89.55;56.30;;;;;;;;;;5034007;28;20207;-57
2022/03/25 04:03:30;;;;;;;89.65;56.67;;;;;;;;;;5034611;28;20207;-57
2022/03/25 04:05:57;;;;;;;88.63;55.17;;;;;;;;;;5041806;28;20211;-57
2022/03/25 04:08:23;;;;;;;90.85;56.75;;;;;;;;;;5060828;28;20247;-56
2022/03/25 04:10:48;;;;;;;91.53;57.20;;;;;;;;;;5051081;28;20632;-57
2022/03/25 04:13:13;;;;;;;95.30;57.80;;;;;;;;;;5041395;28;20698;-57
2022/03/25 04:15:39;;;;;;;92.00;57.22;;;;;;;;;;5042323;28;20608;-57
2022/03/25 04:18:04;;;;;;;89.43;57.05;;;;;;;;;;5040965;28;20207;-57
2022/03/25 04:20:29;;;;;;;93.35;57.75;;;;;;;;;;5035318;28;20211;-57
2022/03/25 04:22:54;;;;;;;85.47;55.78;;;;;;;;;;5034241;28;20207;-57
2022/03/25 04:25:20;;;;;;;92.63;56.58;;;;;;;;;;5036169;28;20334;-57
2022/03/25 04:27:53;;;;;;;91.32;56.90;;;;;;;;;;5043495;28;20554;-57
2022/03/25 04:30:20;;;;;;;94.28;55.78;;;;;;;;;;5064409;28;20234;-57
2022/03/25 04:32:45;;;;;;;92.07;55.97;;;;;;;;;;5064643;28;20211;-57
2022/03/25 04:35:10;;;;;;;87.13;55.50;;;;;;;;;;5064487;28;20643;-57
2022/03/25 04:37:36;;;;;;;85.57;53.72;;;;;;;;;;5063710;28;20210;-57
2022/03/25 04:40:02;;;;;;;89.25;56.78;;;;;;;;;;5043970;28;20211;-57
2022/03/25 04:42:28;;;;;;;88.90;56.63;;;;;;;;;;5041677;28;20832;-57
2022/03/25 04:44:53;;;;;;;91.55;57.08;;;;;;;;;;5036286;28;20204;-57
2022/03/25 04:47:18;;;;;;;91.68;57.17;;;;;;;;;;5036896;28;20215;-57
2022/03/25 04:49:43;;;;;;;90.32;56.10;;;;;;;;;;5040419;28;20244;-57
2022/03/25 04:52:09;;;;;;;87.63;56.45;;;;;;;;;;5044056;28;20650;-57
2022/03/25 04:54:34;;;;;;;90.72;56.70;;;;;;;;;;5045226;28;20219;-57
2022/03/25 04:57:00;;;;;;;91.88;56.78;;;;;;;;;;5063938;28;20218;-57
2022/03/25 04:59:25;;;;;;;92.50;56.30;;;;;;;;;;5054370;28;20218;-57
2022/03/25 05:01:50;;;;;;;90.93;56.65;;;;;;;;;;5045166;28;20211;-57
2022/03/25 05:04:15;;;;;;;89.00;56.67;;;;;;;;;;5043953;28;20211;-57
2022/03/25 05:06:41;;;;;;;94.32;58.75;;;;;;;;;;5036210;28;20203;-56
2022/03/25 05:09:07;;;;;;;96.18;59.35;;;;;;;;;;5055700;28;20625;-57
2022/03/25 05:11:32;;;;;;;94.30;57.85;;;;;;;;;;5041269;28;20221;-57
2022/03/25 05:13:57;;;;;;;99.57;59.85;;;;;;;;;;5043742;28;20249;-57
2022/03/25 05:16:23;;;;;;;94.95;58.60;;;;;;;;;;5043963;28;20211;-57
2022/03/25 05:18:48;;;;;;;95.30;60.20;;;;;;;;;;5044628;28;21202;-57
2022/03/25 05:21:13;;;;;;;99.72;61.83;;;;;;;;;;5043230;28;20659;-57
2022/03/25 05:23:39;;;;;;;104.90;62.35;;;;;;;;;;5044479;28;20210;-56
2022/03/25 05:26:04;;;;;;;97.00;60.58;;;;;;;;;;5044251;28;20219;-57
2022/03/25 05:28:30;;;;;;;101.22;62.65;;;;;;;;;;5037895;28;20272;-56
2022/03/25 05:30:55;;;;;;;97.07;61.75;;;;;;;;;;5055666;28;20866;-57
2022/03/25 05:33:21;;;;;;;104.40;64.10;;;;;;;;;;5055870;28;20605;-56
2022/03/25 05:35:47;;;;;;;98.95;61.42;;;;;;;;;;5060880;28;20244;-57
2022/03/25 05:38:12;;;;;;;96.00;60.45;;;;;;;;;;5056908;28;20226;-57
2022/03/25 05:40:38;;;;;;;95.63;60.40;;;;;;;;;;5044435;28;20750;-59
2022/03/25 05:43:03;;;;;;;101.57;62.33;;;;;;;;;;5042687;28;20219;-59
2022/03/25 05:45:28;;;;;;;91.95;60.03;;;;;;;;;;5046241;28;20233;-59
2022/03/25 05:47:54;;;;;;;94.57;57.83;;;;;;;;;;5063581;28;20217;-59
2022/03/25 05:50:19;;;;;;;95.22;59.72;;;;;;;;;;5059059;28;20226;-59
2022/03/25 05:52:44;;;;;;;103.72;63.70;;;;;;;;;;5055511;28;20966;-59
2022/03/25 05:55:10;;;;;;;96.73;61.83;;;;;;;;;;5053800;28;20462;-60
2022/03/25 05:57:35;;;;;;;98.82;60.65;;;;;;;;;;5058320;28;20300;-60
2022/03/25 06:00:01;;;;;;;101.43;62.60;;;;;;;;;;5048879;28;20226;-59
2022/03/25 06:02:27;;;;;;;104.60;67.73;;;;;;;;;;5060940;28;20410;-59
2022/03/25 06:04:53;;;;;;;96.30;62.92;;;;;;;;;;5046350;28;20207;-62
2022/03/25 06:07:18;;;;;;;105.22;62.75;;;;;;;;;;5043454;28;20221;-61
2022/03/25 06:09:43;;;;;;;107.13;63.80;;;;;;;;;;5047542;28;20230;-62
2022/03/25 06:12:10;;;;;;;96.25;61.22;;;;;;;;;;5051999;28;20547;-62
2022/03/25 06:14:36;;;;;;;100.32;61.95;;;;;;;;;;5039117;28;20207;-60
2022/03/25 06:17:01;;;;;;;101.60;62.05;;;;;;;;;;5037878;28;20964;-61
2022/03/25 06:19:27;;;;;;;100.25;62.28;;;;;;;;;;5040403;28;20221;-61
2022/03/25 06:21:52;;;;;;;95.85;61.30;;;;;;;;;;5045660;28;20240;-61
2022/03/25 06:24:18;;;;;;;96.18;61.47;;;;;;;;;;5042792;28;20215;-60
2022/03/25 06:26:43;;;;;;;99.43;61.50;;;;;;;;;;5043922;28;20305;-60
2022/03/25 06:29:09;;;;;;;95.97;61.58;;;;;;;;;;5043445;28;20325;-60
2022/03/25 06:31:34;;;;;;;93.70;58.50;;;;;;;;;;5043502;28;20678;-59
2022/03/25 06:33:59;;;;;;;99.63;62.05;;;;;;;;;;5043961;28;20211;-60
2022/03/25 06:36:25;;;;;;;96.88;60.38;;;;;;;;;;5038174;28;20958;-59
2022/03/25 06:38:50;;;;;;;97.20;60.70;;;;;;;;;;5035345;28;20260;-60
2022/03/25 06:41:15;;;;;;;95.90;60.17;;;;;;;;;;5037678;28;20239;-59
2022/03/25 06:43:40;;;;;;;94.50;59.70;;;;;;;;;;5041156;28;20210;-61
2022/03/25 06:46:06;;;;;;;88.53;58.53;;;;;;;;;;5042358;28;20239;-61
2022/03/25 06:48:31;;;;;;;92.53;58.50;;;;;;;;;;5042549;28;20269;-61
2022/03/25 06:50:57;;;;;;;88.53;59.92;;;;;;;;;;5058820;28;20332;-61
2022/03/25 06:53:23;;;;;;;89.20;56.97;;;;;;;;;;5056644;28;20658;-61
2022/03/25 06:55:48;;;;;;;83.15;56.75;;;;;;;;;;5042911;28;20238;-61
2022/03/25 06:58:14;;;;;;;86.15;57.00;;;;;;;;;;5039668;28;20227;-61
2022/03/25 07:00:39;;;;;;;87.50;58.67;;;;;;;;;;5046394;28;20866;-61
2022/03/25 07:03:05;;;;;;;87.85;57.28;;;;;;;;;;5034447;28;20222;-61
2022/03/25 07:05:31;;;;;;;80.32;55.60;;;;;;;;;;5036116;28;20238;-61
2022/03/25 07:07:56;;;;;;;81.90;58.53;;;;;;;;;;5062162;28;20252;-61
2022/03/25 07:10:23;;;;;;;84.18;57.33;;;;;;;;;;5055179;28;20242;-61
2022/03/25 07:12:49;;;;;;;83.95;58.38;;;;;;;;;;5053650;28;20413;-61
2022/03/25 07:15:14;;;;;;;83.18;59.40;;;;;;;;;;5057907;28;20742;-61
2022/03/25 07:17:41;;;;;;;77.22;55.85;;;;;;;;;;5060136;28;20795;-61
2022/03/25 07:20:07;;;;;;;81.32;56.60;;;;;;;;;;5031391;28;20235;-62
2022/03/25 07:22:34;;;;;;;81.28;55.80;;;;;;;;;;5054095;28;20248;-59
2022/03/25 07:24:59;;;;;;;79.82;57.30;;;;;;;;;;5053566;28;20456;-60
2022/03/25 07:27:24;;;;;;;77.03;55.10;;;;;;;;;;5053734;28;20689;-60
2022/03/25 07:29:49;;;;;;;74.65;56.05;;;;;;;;;;5052206;28;20230;-60
2022/03/25 07:32:15;;;;;;;72.40;53.35;;;;;;;;;;5041871;28;20211;-60
2022/03/25 07:34:40;;;;;;;80.38;56.33;;;;;;;;;;5041491;28;20211;-63
2022/03/25 07:37:06;;;;;;;79.00;57.38;;;;;;;;;;5038478;28;20217;-62
2022/03/25 07:39:31;;;;;;;79.85;57.50;;;;;;;;;;5043410;28;20207;-63
2022/03/25 07:41:56;;;;;;;82.22;58.78;;;;;;;;;;5042612;28;20220;-63
2022/03/25 07:44:22;;;;;;;76.97;55.15;;;;;;;;;;5051688;28;20938;-63
2022/03/25 07:46:47;;;;;;;77.18;54.67;;;;;;;;;;5026300;28;20809;-63
2022/03/25 07:49:12;;;;;;;75.68;54.78;;;;;;;;;;5033348;28;20788;-63
2022/03/25 07:51:37;;;;;;;77.38;54.85;;;;;;;;;;5021164;28;20211;-62
2022/03/25 07:54:03;;;;;;;75.60;53.70;;;;;;;;;;5041809;28;20731;-63
2022/03/25 07:56:28;;;;;;;73.38;53.40;;;;;;;;;;5048257;28;20238;-63
2022/03/25 07:58:53;;;;;;;72.28;52.35;;;;;;;;;;5043511;28;20249;-60
2022/03/25 08:01:19;;;;;;;74.85;53.20;;;;;;;;;;5050462;28;20214;-62
2022/03/25 08:03:44;;;;;;;73.28;54.50;;;;;;;;;;5054116;28;20194;-60
2022/03/25 08:06:12;;;;;;;71.63;52.63;;;;;;;;;;5055302;28;20215;-61
2022/03/25 08:08:37;;;;;;;74.88;52.72;;;;;;;;;;5056145;28;20705;-61
2022/03/25 08:11:03;;;;;;;73.95;53.15;;;;;;;;;;5054686;28;20226;-61
2022/03/25 08:13:28;;;;;;;71.15;51.65;;;;;;;;;;5055871;28;20248;-61
2022/03/25 08:15:54;;;;;;;69.05;50.85;;;;;;;;;;5055183;28;20785;-61
2022/03/25 08:18:20;;;;;;;71.00;53.50;;;;;;;;;;5055068;28;20215;-62
2022/03/25 08:20:46;;;;;;;71.10;50.65;;;;;;;;;;5037755;28;20207;-62
2022/03/25 08:23:12;;;;;;;76.20;54.28;;;;;;;;;;5054402;28;20290;-61
2022/03/25 08:28:21;;;;;;;65.85;50.17;;;;;;;;;;5055420;28;20293;-61
2022/03/25 08:30:46;;;;;;;66.97;48.97;;;;;;;;;;5054879;28;20239;-62
2022/03/25 08:33:12;;;;;;;68.57;48.60;;;;;;;;;;5061528;28;20222;-63
2022/03/25 08:35:37;;;;;;;70.45;52.33;;;;;;;;;;5072184;28;20198;-62
2022/03/25 08:38:03;;;;;;;68.78;51.80;;;;;;;;;;5074208;28;20624;-61
2022/03/25 08:40:28;;;;;;;70.93;52.75;;;;;;;;;;5075217;28;20229;-62
2022/03/25 08:42:54;;;;;;;68.55;51.47;;;;;;;;;;5075564;28;20591;-62
2022/03/25 08:45:19;;;;;;;74.45;51.95;;;;;;;;;;5064913;28;20243;-62
2022/03/25 08:47:45;;;;;;;69.45;52.45;;;;;;;;;;5055133;28;20218;-62
2022/03/25 08:50:12;;;;;;;75.65;52.92;;;;;;;;;;5036450;28;20275;-62
2022/03/25 08:52:38;;;;;;;72.07;53.10;;;;;;;;;;5054699;28;20682;-62
2022/03/25 08:55:04;;;;;;;73.13;53.47;;;;;;;;;;5054019;28;20227;-61
2022/03/25 08:57:30;;;;;;;65.32;49.15;;;;;;;;;;5055186;28;20286;-62
2022/03/25 08:59:55;;;;;;;67.32;50.20;;;;;;;;;;5067856;28;20309;-62
2022/03/25 09:02:22;;;;;;;72.43;50.30;;;;;;;;;;5062218;28;20207;-62
2022/03/25 09:04:47;;;;;;;67.90;50.75;;;;;;;;;;5070473;28;20223;-62
2022/03/25 09:07:12;;;;;;;74.30;49.88;;;;;;;;;;5072332;28;20233;-62
2022/03/25 09:09:38;;;;;;;66.05;50.15;;;;;;;;;;5064564;28;20223;-62
2022/03/25 09:12:03;;;;;;;66.45;49.50;;;;;;;;;;5053704;28;20285;-62
2022/03/25 09:14:28;;;;;;;68.10;50.33;;;;;;;;;;5059463;28;20218;-62
2022/03/25 09:16:54;;;;;;;66.38;49.00;;;;;;;;;;5054705;28;20308;-61
2022/03/25 09:19:19;;;;;;;65.72;47.35;;;;;;;;;;5053086;28;20230;-62
2022/03/25 09:21:44;;;;;;;62.40;46.55;;;;;;;;;;5054637;28;20231;-62
2022/03/25 09:24:10;;;;;;;70.00;48.20;;;;;;;;;;5054194;28;20226;-61
2022/03/25 09:26:35;;;;;;;66.88;47.17;;;;;;;;;;5053688;28;20207;-62
2022/03/25 09:29:00;;;;;;;65.57;48.47;;;;;;;;;;5054328;28;20749;-62
2022/03/25 09:31:25;;;;;;;65.88;47.15;;;;;;;;;;5054368;28;20222;-62
2022/03/25 09:35:08;;;;;;;64.35;47.58;;;;;;;;;;5053695;28;20215;-62
2022/03/25 09:36:36;;;;;;;61.97;47.15;;;;;;;;;;5053828;28;20662;-62
2022/03/25 09:39:01;;;;;;;64.70;45.45;;;;;;;;;;5053932;28;20215;-61
2022/03/25 09:41:26;;;;;;;64.68;47.47;;;;;;;;;;5053458;28;20218;-62
2022/03/25 09:43:52;;;;;;;62.22;46.42;;;;;;;;;;5054311;28;20622;-62
2022/03/25 09:46:17;;;;;;;63.53;44.47;;;;;;;;;;5071255;28;20268;-62
2022/03/25 09:48:42;;;;;;;59.65;46.50;;;;;;;;;;5073487;28;20340;-62
2022/03/25 09:51:08;;;;;;;59.88;43.80;;;;;;;;;;5073192;28;20234;-61
2022/03/25 09:53:33;;;;;;;60.63;45.83;;;;;;;;;;5074535;28;20247;-62
2022/03/25 09:55:58;;;;;;;59.42;44.08;;;;;;;;;;5073186;28;20253;-61
2022/03/25 09:58:23;;;;;;;61.28;44.85;;;;;;;;;;5045929;28;20244;-61
2022/03/25 10:00:49;;;;;;;59.97;44.95;;;;;;;;;;5070952;28;20246;-61
2022/03/25 10:03:21;;;;;;;59.20;41.28;;;;;;;;;;5072706;28;20211;-62
2022/03/25 10:05:57;;;;;;;61.78;44.17;;;;;;;;;;5074107;28;20722;-61
2022/03/25 10:08:30;;;;;;;63.75;45.17;;;;;;;;;;5072547;28;20293;-62
2022/03/25 10:10:55;;;;;;;65.47;43.88;;;;;;;;;;5073487;28;20704;-62
2022/03/25 10:13:20;;;;;;;63.53;46.00;;;;;;;;;;5044191;28;20523;-60
2022/03/25 10:15:45;;;;;;;57.67;43.13;;;;;;;;;;5052954;28;20252;-60
2022/03/25 10:18:11;;;;;;;62.97;44.53;;;;;;;;;;5053233;28;20219;-60
2022/03/25 10:20:36;;;;;;;61.65;43.88;;;;;;;;;;5053609;28;20237;-60
2022/03/25 10:23:03;;;;;;;61.53;43.38;;;;;;;;;;5051317;28;20214;-60
2022/03/25 10:25:39;;;;;;;59.88;44.78;;;;;;;;;;5053661;28;20656;-60
2022/03/25 10:28:05;;;;;;;65.65;45.25;;;;;;;;;;5052451;28;20268;-60
2022/03/25 10:30:35;;;;;;;59.35;44.03;;;;;;;;;;5034922;28;20251;-60
2022/03/25 10:33:07;;;;;;;63.42;45.13;;;;;;;;;;5053016;28;20230;-60
2022/03/25 10:35:32;;;;;;;63.47;46.70;;;;;;;;;;5053395;28;20666;-60
2022/03/25 10:37:58;;;;;;;60.42;43.85;;;;;;;;;;5052123;28;20229;-60
2022/03/25 10:40:23;;;;;;;65.28;44.80;;;;;;;;;;5052777;28;20229;-60
2022/03/25 10:43:02;;;;;;;63.22;45.20;;;;;;;;;;5052682;28;20241;-60
2022/03/25 10:45:27;;;;;;;62.03;45.30;;;;;;;;;;5062215;28;20236;-60
2022/03/25 10:48:09;;;;;;;60.83;45.22;;;;;;;;;;5072770;28;20214;-60
2022/03/25 10:50:34;;;;;;;71.25;46.03;;;;;;;;;;5071862;28;20222;-61
2022/03/25 10:53:09;;;;;;;57.78;44.15;;;;;;;;;;5054878;28;20206;-60
2022/03/25 10:55:34;;;;;;;59.92;44.03;;;;;;;;;;5072454;28;20752;-61
2022/03/25 10:57:59;;;;;;;59.40;45.53;;;;;;;;;;5071728;28;20309;-61
2022/03/25 11:00:25;;;;;;;61.95;45.22;;;;;;;;;;5060958;28;21056;-61
2022/03/25 11:02:51;;;;;;;64.68;44.92;;;;;;;;;;5061195;28;20269;-61
2022/03/25 11:05:16;;;;;;;58.13;43.88;;;;;;;;;;5065535;28;20250;-61
2022/03/25 11:07:43;;;;;;;67.15;43.97;;;;;;;;;;5072312;28;20210;-61
2022/03/25 11:10:09;;;;;;;61.80;44.30;;;;;;;;;;5071941;28;20256;-60
2022/03/25 11:12:34;;;;;;;61.75;44.00;;;;;;;;;;5053012;28;20210;-61
2022/03/25 11:15:00;;;;;;;59.60;44.28;;;;;;;;;;5072422;28;20596;-62
2022/03/25 11:17:26;;;;;;;61.67;44.75;;;;;;;;;;5072102;28;20301;-62
2022/03/25 11:19:51;;;;;;;62.83;44.92;;;;;;;;;;5050666;28;20246;-63
2022/03/25 11:22:16;;;;;;;57.85;43.70;;;;;;;;;;5060646;28;20202;-61
2022/03/25 11:24:44;;;;;;;60.08;44.83;;;;;;;;;;5041290;28;20279;-62
2022/03/25 11:27:17;;;;;;;65.90;44.05;;;;;;;;;;5059714;28;20247;-62
2022/03/25 11:29:43;;;;;;;60.63;43.53;;;;;;;;;;5039194;28;20223;-63
2022/03/25 11:32:11;;;;;;;61.60;45.28;;;;;;;;;;5053484;28;20666;-63
2022/03/25 11:34:41;;;;;;;62.35;46.00;;;;;;;;;;5050247;28;20207;-63
2022/03/25 11:37:16;;;;;;;59.58;44.58;;;;;;;;;;5049882;28;20214;-62
2022/03/25 11:39:41;;;;;;;60.03;44.65;;;;;;;;;;5050322;28;20217;-63
2022/03/25 11:42:07;;;;;;;61.10;45.20;;;;;;;;;;5030910;28;20207;-62
2022/03/25 11:44:33;;;;;;;61.13;44.78;;;;;;;;;;5052961;28;20211;-62
2022/03/25 11:46:59;;;;;;;63.92;45.63;;;;;;;;;;5069558;28;20210;-63
2022/03/25 11:49:25;;;;;;;63.13;43.28;;;;;;;;;;5069560;28;20214;-62
2022/03/25 11:51:50;;;;;;;63.13;44.35;;;;;;;;;;5070454;28;20224;-62
2022/03/25 11:54:34;;;;;;;61.22;42.03;;;;;;;;;;5068917;28;20233;-62
2022/03/25 11:57:00;;;;;;;58.80;42.60;;;;;;;;;;5069899;28;20321;-63
2022/03/25 11:59:26;;;;;;;61.70;43.30;;;;;;;;;;5041921;28;20595;-62
2022/03/25 12:02:06;;;;;;;59.20;43.72;;;;;;;;;;5049499;28;20284;-62
2022/03/25 12:04:33;;;;;;;59.22;43.53;;;;;;;;;;5031962;28;20210;-62
2022/03/25 12:07:06;;;;;;;62.40;44.25;;;;;;;;;;5050030;28;20215;-63
2022/03/25 12:09:32;;;;;;;61.35;44.30;;;;;;;;;;5048610;28;20215;-62
2022/03/25 12:11:58;;;;;;;57.22;43.33;;;;;;;;;;5049643;28;20225;-62
2022/03/25 12:14:31;;;;;;;55.83;41.92;;;;;;;;;;5067736;28;20198;-62
2022/03/25 12:17:01;;;;;;;60.38;42.10;;;;;;;;;;5069258;28;20912;-63
2022/03/25 12:19:26;;;;;;;65.95;42.50;;;;;;;;;;5069550;28;20228;-63
2022/03/25 12:21:53;;;;;;;59.75;42.75;;;;;;;;;;5069950;28;20215;-63
2022/03/25 12:24:19;;;;;;;56.53;42.33;;;;;;;;;;5068467;28;20570;-63
2022/03/25 12:26:44;;;;;;;51.78;38.83;;;;;;;;;;5069559;28;20713;-63
2022/03/25 12:29:09;;;;;;;54.50;39.20;;;;;;;;;;5068356;28;20218;-62
2022/03/25 12:31:35;;;;;;;59.38;41.17;;;;;;;;;;5069786;28;20210;-62
2022/03/25 12:34:00;;;;;;;56.40;40.28;;;;;;;;;;5069453;28;20213;-62
2022/03/25 12:36:27;;;;;;;52.20;37.50;;;;;;;;;;5069117;28;20233;-63
2022/03/25 12:38:53;;;;;;;50.17;36.60;;;;;;;;;;5069657;28;20289;-63
2022/03/25 12:41:25;;;;;;;53.92;40.42;;;;;;;;;;5068941;28;20245;-62
2022/03/25 12:44:00;;;;;;;55.15;41.90;;;;;;;;;;5069153;28;20218;-62
2022/03/25 12:46:26;;;;;;;52.95;38.45;;;;;;;;;;5053887;28;20713;-62
2022/03/25 12:48:51;;;;;;;52.63;37.92;;;;;;;;;;5053262;28;20202;-62
2022/03/25 12:51:20;;;;;;;57.88;40.97;;;;;;;;;;5052093;28;20223;-63
2022/03/25 12:53:47;;;;;;;51.83;36.83;;;;;;;;;;5053325;28;20207;-62
2022/03/25 12:56:13;;;;;;;53.20;38.67;;;;;;;;;;5052096;28;20215;-63
2022/03/25 12:58:39;;;;;;;58.60;40.25;;;;;;;;;;5055606;28;20210;-63
2022/03/25 13:01:04;;;;;;;54.40;41.25;;;;;;;;;;5063537;28;20207;-63
2022/03/25 13:03:31;;;;;;;46.92;32.90;;;;;;;;;;5064033;28;20731;-63
2022/03/25 13:05:56;;;;;;;46.55;35.28;;;;;;;;;;5072327;28;20214;-62
2022/03/25 13:08:23;;;;;;;51.60;36.78;;;;;;;;;;5072722;28;20207;-63
2022/03/25 13:10:51;;;;;;;59.40;40.17;;;;;;;;;;5054396;28;20249;-62
2022/03/25 13:13:17;;;;;;;48.08;36.08;;;;;;;;;;5052771;28;20605;-63
2022/03/25 13:15:45;;;;;;;47.05;32.83;;;;;;;;;;5066928;28;20290;-63
2022/03/25 13:18:11;;;;;;;54.88;35.65;;;;;;;;;;5052272;28;20304;-62
2022/03/25 13:20:37;;;;;;;54.92;34.85;;;;;;;;;;5052358;28;20638;-63
2022/03/25 13:23:04;;;;;;;49.15;35.10;;;;;;;;;;5052440;28;20298;-63
2022/03/25 13:25:30;;;;;;;46.15;33.75;;;;;;;;;;5051496;28;20277;-63
2022/03/25 13:27:56;;;;;;;51.65;35.90;;;;;;;;;;5052587;28;20211;-63
2022/03/25 13:30:22;;;;;;;45.55;31.35;;;;;;;;;;5034134;28;20238;-62
2022/03/25 13:32:55;;;;;;;43.95;31.45;;;;;;;;;;5051631;28;20211;-63
2022/03/25 13:35:20;;;;;;;41.28;26.42;;;;;;;;;;5052116;28;22448;-62
2022/03/25 13:37:45;;;;;;;39.83;27.25;;;;;;;;;;5052449;28;20219;-63
2022/03/25 13:40:26;;;;;;;41.42;26.63;;;;;;;;;;5050662;28;20231;-62
2022/03/25 13:42:53;;;;;;;43.40;26.83;;;;;;;;;;5052591;28;20218;-62
2022/03/25 13:45:19;;;;;;;41.10;26.52;;;;;;;;;;5061014;28;20202;-63
2022/03/25 13:47:44;;;;;;;38.83;25.77;;;;;;;;;;5071504;28;20229;-62
2022/03/25 13:50:10;;;;;;;41.28;26.88;;;;;;;;;;5071648;28;20302;-62
2022/03/25 13:52:35;;;;;;;40.25;24.98;;;;;;;;;;5072185;28;20293;-63
2022/03/25 13:55:14;;;;;;;37.65;25.83;;;;;;;;;;5053225;28;20314;-63
2022/03/25 13:57:39;;;;;;;43.53;27.40;;;;;;;;;;5069978;28;20244;-62
2022/03/25 14:00:05;;;;;;;42.33;27.27;;;;;;;;;;5038416;28;20218;-62
2022/03/25 14:02:31;;;;;;;41.03;28.05;;;;;;;;;;5051008;28;20293;-63
2022/03/25 14:04:56;;;;;;;40.25;26.33;;;;;;;;;;5051939;28;20212;-62
2022/03/25 14:07:22;;;;;;;43.45;29.70;;;;;;;;;;5051143;28;20358;-62
2022/03/25 14:09:54;;;;;;;42.53;27.98;;;;;;;;;;5050807;28;20309;-62
2022/03/25 14:12:22;;;;;;;35.20;22.25;;;;;;;;;;5033969;28;20576;-62